< Typhoon 201223 2012 Season Typhoon 201225 >
Typhoon 201224 (BOPHA)
General InformationTrack Information on Google MapsDetailed Wind InformationAccess Analytics MapList of All Images || NewsDisaster Info.WeblogTrackbackTyphoon FrontTwiphoonTyphoon Now!Typhoon ImaginationResourceGoogle EarthGE AnimationAtom FeedGeoJSON
Detalied Best Track (Time Zone = UTC)
Year Month Day Hour Lat. Long. Pressure (hPa) Wind (kt) Class Image Chart
2012 11 25 18 3.4 156.9 1004 0 2 Image Chart
2012 11 26 00 3.7 156.7 1008 0 2 Image Chart
2012 11 26 06 3.9 156.6 1004 0 2 Image Chart
2012 11 26 12 4.0 156.4 1006 0 2 Image Chart
2012 11 26 18 4.1 156.3 1002 35 3 Image Chart
2012 11 27 00 4.3 156.2 1004 35 3 Image Chart
2012 11 27 06 4.4 155.8 1002 35 3 Image Chart
2012 11 27 12 4.4 155.5 1002 35 3 Image Chart
2012 11 27 18 4.6 155.1 998 40 3 Image Chart
2012 11 28 00 4.7 154.3 998 40 3 Image Chart
2012 11 28 06 4.8 153.1 998 40 3 Image Chart
2012 11 28 12 4.6 151.7 998 40 3 Image Chart
2012 11 28 18 4.2 150.8 994 45 3 Image Chart
2012 11 29 00 4.0 150.0 994 45 3 Image Chart
2012 11 29 06 3.8 149.2 994 45 3 Image Chart
2012 11 29 12 3.4 148.0 994 45 3 Image Chart
2012 11 29 18 3.4 147.1 994 45 3 Image Chart
2012 11 30 00 3.6 146.3 990 50 4 Image Chart
2012 11 30 06 3.9 145.3 980 60 4 Image Chart
2012 11 30 12 4.2 144.2 970 65 5 Image Chart
2012 11 30 18 4.4 142.9 965 75 5 Image Chart
2012 12 1 00 4.7 142.1 945 90 5 Image Chart
2012 12 1 06 5.1 141.1 945 90 5 Image Chart
2012 12 1 12 5.4 140.0 945 90 5 Image Chart
2012 12 1 18 5.8 138.8 940 95 5 Image Chart
2012 12 2 00 6.2 137.7 935 100 5 Image Chart
2012 12 2 06 6.4 136.0 935 100 5 Image Chart
2012 12 2 12 6.4 134.6 935 100 5 Image Chart
2012 12 2 18 6.5 133.3 940 90 5 Image Chart
2012 12 3 00 6.8 131.8 940 90 5 Image Chart
2012 12 3 06 7.0 130.4 935 100 5 Image Chart
2012 12 3 12 7.4 128.9 930 100 5 Image Chart
2012 12 3 18 7.6 127.3 930 100 5 Image Chart
2012 12 4 00 7.9 125.9 945 85 5 Image Chart
2012 12 4 06 8.7 124.1 970 70 5 Image Chart
2012 12 4 12 9.2 122.4 975 65 5 Image Chart
2012 12 4 18 9.8 120.6 975 65 5 Image Chart
2012 12 5 00 9.8 119.8 975 65 5 Image Chart
2012 12 5 06 10.6 118.8 975 65 5 Image Chart
2012 12 5 12 11.2 118.2 975 65 5 Image Chart
2012 12 5 18 11.5 117.7 975 65 5 Image Chart
2012 12 6 00 12.0 117.0 975 65 5 Image Chart
2012 12 6 06 12.4 116.6 975 65 5 Image Chart
2012 12 6 12 12.8 116.3 975 65 5 Image Chart
2012 12 6 18 13.2 115.8 980 60 4 Image Chart
2012 12 7 00 13.7 115.6 965 70 5 Image Chart
2012 12 7 06 14.6 115.9 955 80 5 Image Chart
2012 12 7 12 15.4 116.0 945 90 5 Image Chart
2012 12 7 18 16.1 116.2 945 90 5 Image Chart
2012 12 8 00 16.8 116.9 950 85 5 Image Chart
2012 12 8 06 17.5 117.9 955 80 5 Image Chart
2012 12 8 12 17.9 118.6 970 65 5 Image Chart
2012 12 8 18 18.1 119.0 1000 40 3 Image Chart
2012 12 9 00 18.1 119.2 1004 35 3 Image Chart
2012 12 9 06 17.8 119.5 1006 0 2 Image Chart
Japan Meteorological Agency Best Track Data | Correction Date : 2013-01-11
< Typhoon 201223 2012 Season Typhoon 201225 >

Help